Hauptseite
METAR-TAF:

METAR-TAF

Flughäfen :

Flughafen Madeira Cristiano Ronaldo

Funchal, Madeira, Portugal

Breite: 32-41-52N, Länge: 016-46-28W, Höhe: 59 m

Beobachtung

Neuester Wetterbericht von vor 42 Minuten, um 10:30 UTC
Wind 7 kt aus Nord, variierte zwischen Nordwest und Nord/Nordost
Temperatur 16°C
Luftfeuchtigkeit 55%
Luftdruck 1030 hPa
Sichtweite 10 km oder mehr
Aufgelockert bewölkt in der Höhe von 1500 ft
Durchbrochene Bewölkung in der Höhe von 3000 ft

METAR: LPMA 221030Z 36007KT 320V020 9999 SCT015 BKN030 16/07 Q1030

Zeit: 11:12 (11:12 UTC)

Prognose

Neuester Wetterbericht von vor 6 Stunden und 12 Minuten, um 05:00 UTC
Gültige Prognose vom 22 um 06 UTC bis 23 um 06 UTC
Wind 10 kt aus Nord
Sichtweite 10 km oder mehr
Aufgelockert bewölkt in der Höhe von 1500 ft
Durchbrochene Bewölkung in der Höhe von 3000 ft

TAF: LPMA 220500Z 2206/2306 01010KT 9999 SCT015 BKN030

Wetterbeobachtungen und Prognosen von mehr als 4000 Flughäfen (METAR und TAF Bericht).

Die verfügbaren Stationen werden durch gelbe und rote Markierungen auf der Karte dargestellt.

Führen Sie die Maus auf sie, um den Namen der Station zu sehen.

Darauf klicken, um die Beobachtung von Wetterbeobachtungen und Prognosen zu sehen.

Um die Karte zu ändern : klicken Sie auf den grünen Tasten mit einem schwarzen Kreuz Zum Vergrößern, auf den grünen Button mit einem Gedankenstrich zu verkleinern, oder auf die grünen Pfeile für benachbarte Karten.


METAR-TAF: